CZ-0065 weather

Jiřičky UL
Jiřičky, Vysočina Region, Czechia

Public forecast

Using degrees Celsius for public forecast. Weather courtesy of forecast.io.

METAR (pilot weather report)

Closest report is Čáslav Air Base, 24.9 nm (46.1 km) NNE. Retrieved 2019/07/21 09:00 UTC (48 minutes ago):

LKCV 210900Z 24009KT 9999 -RA NSC 20/17 Q1020 NOSIG RMK BLU BLU

TAF (pilot weather forecast)

Closest forecast is Čáslav Air Base, 24.9 nm (46.1 km) NNE. Retrieved 2019/07/21 06:05 UTC (4 hours ago):

TAF LKCV 210500Z 2106/2206 14005KT CAVOK BECMG 2106/2108 26012KT TEMPO 2106/2118 25018KT 7000 SHRA BKN030TCU PROB40 TEMPO 2106/2115 27018G30KT 4000 TSRA BKN020CB BECMG 2119/2121 VRB02KT CAVOK